LIPI

Rivolto Air Base Airport

Codroipo, Italy
TAF LIPI 210800Z 2109/2118 VRB05KT 9999 SCT040 BKN080 TEMPO 2111/2114 8000 RA PROB30 TEMPO 2114/2118 FEW020CB BKN050
Issued Valid From Valid To
Jul-21 @ 08:00 UTC
(3 hours ago)
Jul-21 @ 09:00 UTC
(2 hours ago)
Jul-21 @ 18:00 UTC
(in 7 hours)
Jul-21 @ 09:00 to Jul-21 @ 18:00
TAF LIPI 210800Z 2109/2118 VRB05KT 9999 SCT040 BKN080
Wind Visibility Clouds
Variable at 5 knots 10,000+ meters
  • Scattered at 4,000' AGL
  • Broken at 8,000' AGL
Temporary Jul-21 @ 11:00 to Jul-21 @ 14:00
TEMPO 2111/2114 8000 RA
Visibility Conditions
7,998 meters
  • Rain
Temporary  (Probability 30%) Jul-21 @ 14:00 to Jul-21 @ 18:00
PROB30 TEMPO 2114/2118 FEW020CB BKN050
Clouds
  • Few at 2,000' AGL
  • Broken at 5,000' AGL
TAF LIPI 210800Z 2109/2118 VRB05KT 9999 SCT040 BKN080 TEMPO 2111/2114 8000 RA PROB30 TEMPO 2114/2118 FEW020CB BKN050
Issued Jul-21 @ 08:00 UTC
(3 hours ago)
Valid From Jul-21 @ 09:00 UTC
(2 hours ago)
Valid To Jul-21 @ 18:00 UTC
(in 7 hours)
Jul-21 @ 09:00 - Jul-21 @ 18:00
Wind Visibility
Variable at 5 knots 10,000+ meters
Clouds
  • Scattered at 4,000' AGL
  • Broken at 8,000' AGL
Temporary Jul-21 @ 11:00 - Jul-21 @ 14:00
Conditions
  • Rain
Probability 30% Temporary Jul-21 @ 14:00 - Jul-21 @ 18:00
Clouds
  • Few at 2,000' AGL
  • Broken at 5,000' AGL